Palominas, Arizona
Current Conditions -  °F | °C
As of 9:55 AM on Tuesday 27 Jan 2015 (Local Time) from KFHU Reporting Station
Broken Clouds Broken Clouds  
Wind Chill: 57°   Ceiling: 28000
Heat Index: 57°   Visibility: 10mi
Dew Point: 36°   Wind: 7mph
Humidity: 44%   Direction: 110°ESE
Pressure: 30.31"   Gusts: NA
Location:  31.4041°N, 110.306°W
Report Text: KFHU 271655Z 11006KT 10SM FEW046 BKN280 14/02 A3031 RMK SLP238
Loading
Personal Weather Stations






























Interactive Weather Map New forecast layout! Learn more

10-Day Weather Forecast

Advertisements
Track Severe Weather on mobile